Time;durP1;ratioP1;P1;durP2;ratioP2;P2;SDS_P1;SDS_P2;PMS_P1;PMS_P2;Temp;Humidity;BMP_temperature;BMP_pressure;BME280_temperature;BME280_humidity;BME280_pressure;Samples;Min_cycle;Max_cycle;Signal;HPM_P1;HPM_P2
2022/11/08 00:01:31;;;;;;;0.40;0.40;;;;;;;10.52;95.90;99469.94;4988202;28;20030;-75
2022/11/08 00:03:58;;;;;;;0.40;0.40;;;;;;;10.54;96.04;99471.59;4988108;28;20081;-75
2022/11/08 00:14:35;;;;;;;0.40;0.40;;;;;;;10.63;95.83;99475.72;4988055;28;20029;-75
2022/11/08 00:17:01;;;;;;;1.35;1.27;;;;;;;10.66;96.17;99475.66;4987985;28;20026;-75
2022/11/08 00:19:26;;;;;;;0.40;0.40;;;;;;;10.66;96.23;99473.06;4987675;28;20019;-73
2022/11/08 00:21:51;;;;;;;1.15;1.15;;;;;;;10.71;96.16;99475.53;4987860;28;20120;-75
2022/11/08 00:24:17;;;;;;;0.80;0.80;;;;;;;10.73;96.01;99478.97;4987740;28;20094;-75
2022/11/08 00:26:42;;;;;;;0.50;0.50;;;;;;;10.78;96.49;99469.28;4987886;28;20015;-75
2022/11/08 00:29:07;;;;;;;0.40;0.40;;;;;;;10.80;96.75;99486.59;4987643;28;20027;-76
2022/11/08 00:31:33;;;;;;;0.30;0.30;;;;;;;10.85;96.50;99475.19;4987521;28;20038;-76
2022/11/08 00:33:58;;;;;;;0.40;0.40;;;;;;;10.84;96.79;99472.63;4987621;28;20061;-76
2022/11/08 00:36:23;;;;;;;0.60;0.60;;;;;;;10.84;96.79;99476.09;4987485;28;20046;-75
2022/11/08 00:38:49;;;;;;;0.40;0.40;;;;;;;10.90;96.99;99477.69;4987434;28;20023;-75
2022/11/08 00:41:14;;;;;;;0.40;0.40;;;;;;;10.85;96.94;99471.72;4986888;28;20034;-76
2022/11/08 00:43:55;;;;;;;0.40;0.40;;;;;;;10.93;97.35;99476.75;4987378;28;20018;-75
2022/11/08 00:46:20;;;;;;;0.40;0.40;;;;;;;10.93;97.24;99477.59;4987398;28;20059;-75
2022/11/08 00:48:45;;;;;;;0.38;0.38;;;;;;;10.92;97.26;99475.91;4987267;28;20034;-75
2022/11/08 00:51:11;;;;;;;0.40;0.40;;;;;;;10.93;97.41;99476.75;4987344;28;20022;-74
2022/11/08 00:53:37;;;;;;;0.45;0.45;;;;;;;10.95;97.67;99475.81;4987143;28;20030;-75
2022/11/08 00:56:09;;;;;;;0.60;0.60;;;;;;;10.97;97.49;99486.16;4987249;28;20038;-76
2022/11/08 00:58:34;;;;;;;9.05;4.68;;;;;;;11.00;97.52;99480.91;4987239;28;20043;-75
2022/11/08 01:01:00;;;;;;;0.40;0.40;;;;;;;11.00;97.73;99488.69;4986994;28;20073;-75
2022/11/08 01:03:25;;;;;;;0.55;0.55;;;;;;;10.98;97.48;99485.28;4987108;28;20029;-75
2022/11/08 01:05:53;;;;;;;0.30;0.30;;;;;;;11.00;97.95;99489.56;4986979;28;20117;-75
2022/11/08 01:08:21;;;;;;;0.40;0.40;;;;;;;11.03;97.83;99483.41;4986894;28;20046;-75
2022/11/08 01:10:50;;;;;;;1.58;1.48;;;;;;;11.07;97.62;99485.03;4986943;28;20030;-75
2022/11/08 01:13:17;;;;;;;0.30;0.30;;;;;;;11.03;97.96;99488.63;4986826;28;20079;-75
2022/11/08 01:15:44;;;;;;;0.40;0.40;;;;;;;11.02;98.28;99486.91;4986864;28;20027;-75
2022/11/08 01:18:11;;;;;;;0.40;0.40;;;;;;;11.04;97.84;99485.13;4986689;28;20023;-75
2022/11/08 01:20:38;;;;;;;0.47;0.47;;;;;;;11.05;97.90;99485.97;4986292;28;20081;-75
2022/11/08 01:23:04;;;;;;;0.40;0.40;;;;;;;11.02;98.31;99486.91;4986672;28;20027;-75
2022/11/08 01:25:29;;;;;;;0.40;0.40;;;;;;;11.02;98.47;99477.38;4986600;28;20026;-75
2022/11/08 01:27:54;;;;;;;0.40;0.40;;;;;;;11.06;98.19;99478.16;4986580;28;20089;-75
2022/11/08 01:30:20;;;;;;;0.40;0.40;;;;;;;11.04;98.58;99477.31;4986650;28;20034;-75
2022/11/08 01:32:45;;;;;;;0.40;0.40;;;;;;;11.07;98.63;99469.44;4986577;28;20033;-75
2022/11/08 01:35:10;;;;;;;0.30;0.30;;;;;;;11.06;98.45;99461.69;4986692;28;20053;-73
2022/11/08 01:37:36;;;;;;;1.65;1.55;;;;;;;11.08;98.32;99472.91;4986521;28;20026;-75
2022/11/08 01:40:02;;;;;;;0.40;0.40;;;;;;;11.08;98.82;99470.31;4986394;28;20015;-75
2022/11/08 01:42:31;;;;;;;0.88;0.88;;;;;;;11.06;98.35;99472.94;4986484;28;20033;-75
2022/11/08 01:45:08;;;;;;;0.45;0.45;;;;;;;11.09;98.65;99469.41;4986503;28;20058;-74
2022/11/08 01:47:34;;;;;;;0.30;0.30;;;;;;;11.09;98.53;99470.28;4985421;28;20348;-75
2022/11/08 01:50:01;;;;;;;4.80;2.67;;;;;;;11.10;98.53;99471.13;4986511;28;20049;-75
2022/11/08 01:52:36;;;;;;;0.40;0.40;;;;;;;11.11;98.52;99468.50;4986464;28;20137;-74
2022/11/08 01:55:16;;;;;;;0.40;0.40;;;;;;;11.13;98.72;99456.31;4986350;28;20059;-73
2022/11/08 01:57:56;;;;;;;0.40;0.40;;;;;;;11.11;98.74;99452.91;4986409;28;20034;-73
2022/11/08 02:00:21;;;;;;;0.50;0.50;;;;;;;11.13;98.83;99463.25;4986336;28;20031;-74
2022/11/08 02:03:02;;;;;;;0.47;0.47;;;;;;;11.11;99.03;99458.09;4986353;28;20042;-74
2022/11/08 02:05:29;;;;;;;0.40;0.40;;;;;;;11.10;99.38;99458.97;4986678;28;20119;-75
2022/11/08 02:08:03;;;;;;;0.40;0.40;;;;;;;11.10;99.14;99463.34;4986043;28;20053;-75
2022/11/08 02:10:38;;;;;;;0.30;0.30;;;;;;;11.12;99.27;99467.59;4986461;28;20026;-75
2022/11/08 02:13:08;;;;;;;2.22;2.13;;;;;;;11.13;99.64;99461.50;4986170;28;20027;-75
2022/11/08 02:15:33;;;;;;;0.60;0.60;;;;;;;11.18;99.63;99460.53;4986194;28;20094;-75
2022/11/08 02:17:59;;;;;;;0.35;0.35;;;;;;;11.16;99.41;99455.38;4986372;28;20034;-75
2022/11/08 02:20:25;;;;;;;0.40;0.40;;;;;;;11.21;99.47;99458.72;4985884;28;20653;-76
2022/11/08 02:23:21;;;;;;;1.15;1.15;;;;;;;11.24;99.74;99457.78;4986001;28;20074;-75
2022/11/08 02:25:47;;;;;;;0.40;0.40;;;;;;;11.21;99.66;99461.31;4986273;28;20027;-75
2022/11/08 02:28:12;;;;;;;0.77;0.77;;;;;;;11.27;99.59;99455.97;4985992;28;20097;-75
2022/11/08 02:30:38;;;;;;;0.30;0.30;;;;;;;11.24;99.74;99447.38;4986007;28;20042;-75
2022/11/08 02:33:18;;;;;;;0.70;0.70;;;;;;;11.26;99.79;99451.63;4988924;28;20029;-76
2022/11/08 02:35:47;;;;;;;0.40;0.40;;;;;;;11.27;99.82;99442.97;4989934;28;20018;-75
2022/11/08 02:38:12;;;;;;;0.40;0.40;;;;;;;11.31;99.82;99441.13;4989644;28;20074;-75
2022/11/08 02:41:04;;;;;;;0.40;0.40;;;;;;;11.32;99.57;99445.44;4989722;28;20023;-75
2022/11/08 02:43:29;;;;;;;0.40;0.40;;;;;;;11.29;99.74;99450.72;4986793;28;20053;-76
2022/11/08 02:45:56;;;;;;;0.40;0.40;;;;;;;11.30;99.67;99456.75;4989621;28;20046;-76
2022/11/08 02:48:22;;;;;;;0.43;0.43;;;;;;;11.29;99.74;99450.72;4989640;28;20027;-75
2022/11/08 02:50:47;;;;;;;0.40;0.40;;;;;;;11.27;99.86;99448.16;4989522;28;20026;-75
2022/11/08 02:53:12;;;;;;;2.10;2.00;;;;;;;11.32;100.00;99444.59;4989499;28;20023;-75
2022/11/08 02:55:38;;;;;;;0.40;0.40;;;;;;;11.29;99.98;99453.31;4989328;28;20096;-75
2022/11/08 02:58:03;;;;;;;0.40;0.40;;;;;;;11.29;100.00;99445.53;4989401;28;20050;-75
2022/11/08 03:00:29;;;;;;;1.02;1.02;;;;;;;11.28;100.00;99439.47;4988996;28;20027;-75
2022/11/08 03:02:56;;;;;;;1.00;0.98;;;;;;;11.32;100.00;99448.03;4989268;28;20031;-75
2022/11/08 03:05:23;;;;;;;0.40;0.40;;;;;;;11.31;100.00;99446.31;4988932;28;20053;-74
2022/11/08 03:07:49;;;;;;;0.50;0.50;;;;;;;11.36;100.00;99449.66;4988948;28;20087;-73
2022/11/08 03:10:15;;;;;;;0.38;0.38;;;;;;;11.34;100.00;99451.44;4989020;28;20091;-75
2022/11/08 03:12:41;;;;;;;0.40;0.40;;;;;;;11.31;100.00;99448.09;4989045;28;20101;-76
2022/11/08 03:15:09;;;;;;;4.97;2.05;;;;;;;11.35;100.00;99452.28;4989241;28;20038;-75
2022/11/08 03:17:34;;;;;;;0.40;0.40;;;;;;;11.36;100.00;99444.44;4989101;28;20027;-74
2022/11/08 03:20:00;;;;;;;0.40;0.40;;;;;;;11.38;100.00;99444.41;4988963;28;20078;-74
2022/11/08 03:22:25;;;;;;;0.40;0.40;;;;;;;11.33;100.00;99441.94;4988802;28;20050;-74
2022/11/08 03:24:51;;;;;;;5.25;3.90;;;;;;;11.38;100.00;99453.06;4988938;28;20034;-74
2022/11/08 03:27:18;;;;;;;0.40;0.40;;;;;;;11.39;100.00;99449.56;4988765;28;20050;-74
2022/11/08 03:29:44;;;;;;;0.38;0.38;;;;;;;11.43;100.00;99450.34;4988703;28;20027;-74
2022/11/08 03:32:09;;;;;;;0.47;0.47;;;;;;;11.45;100.00;99447.69;4988645;28;20504;-74
2022/11/08 03:34:35;;;;;;;0.40;0.40;;;;;;;11.45;100.00;99447.69;4988731;28;20094;-75
2022/11/08 03:37:00;;;;;;;0.43;0.43;;;;;;;11.44;100.00;99448.59;4988611;28;20379;-74
2022/11/08 03:39:25;;;;;;;0.40;0.40;;;;;;;11.45;100.00;99438.16;4988665;28;20027;-75
2022/11/08 03:41:51;;;;;;;0.40;0.40;;;;;;;11.45;100.00;99448.56;4988469;28;20094;-74
2022/11/08 03:44:16;;;;;;;0.40;0.40;;;;;;;11.46;100.00;99449.41;4988482;28;20023;-74
2022/11/08 03:46:41;;;;;;;0.60;0.60;;;;;;;11.48;100.00;99458.00;4988511;28;20039;-75
2022/11/08 03:49:07;;;;;;;0.40;0.40;;;;;;;11.43;100.00;99449.47;4988269;28;20031;-75
2022/11/08 03:51:32;;;;;;;0.40;0.40;;;;;;;11.45;100.00;99458.97;4988533;28;20471;-75
2022/11/08 03:53:58;;;;;;;0.38;0.38;;;;;;;11.45;100.00;99458.09;4970969;28;20117;-74
2022/11/08 03:56:23;;;;;;;0.50;0.50;;;;;;;11.46;100.00;99452.00;4970936;28;20054;-75
2022/11/08 03:58:48;;;;;;;0.40;0.40;;;;;;;11.48;100.00;99455.41;4988335;28;20026;-75
2022/11/08 04:01:14;;;;;;;0.40;0.40;;;;;;;11.47;100.00;99458.91;4988231;28;20023;-74
2022/11/08 04:03:39;;;;;;;0.40;0.40;;;;;;;11.47;100.00;99464.94;4988157;28;20081;-74
2022/11/08 04:06:05;;;;;;;0.40;0.40;;;;;;;11.48;100.00;99453.69;4970828;28;20475;-74
2022/11/08 04:08:30;;;;;;;0.47;0.47;;;;;;;11.51;100.00;99456.19;4987979;28;20027;-74
2022/11/08 04:15:13;;;;;;;0.32;0.32;;;;;;;11.48;100.00;99452.81;4988156;28;20029;-74
2022/11/08 04:16:26;;;;;;;1.33;1.23;;;;;;;11.53;100.00;99453.56;4988022;28;20033;-74
2022/11/08 04:21:35;;;;;;;0.40;0.40;;;;;;;11.53;100.00;99471.75;4987761;28;20117;-74
2022/11/08 04:24:00;;;;;;;0.40;0.40;;;;;;;11.55;100.00;99474.31;4987885;28;20026;-75
2022/11/08 04:26:26;;;;;;;0.40;0.40;;;;;;;11.53;100.00;99467.38;4987728;28;20037;-75
2022/11/08 04:28:51;;;;;;;0.30;0.30;;;;;;;11.55;100.00;99464.72;4987672;28;20053;-74
2022/11/08 04:31:18;;;;;;;0.40;0.40;;;;;;;11.58;100.00;99462.03;4987680;28;20026;-75
2022/11/08 04:33:44;;;;;;;0.40;0.40;;;;;;;11.59;100.00;99460.31;4987508;28;20035;-75
2022/11/08 04:36:14;;;;;;;0.40;0.40;;;;;;;11.59;100.00;99461.16;4987612;28;20537;-75
2022/11/08 04:38:40;;;;;;;0.88;0.88;;;;;;;11.56;100.00;99465.59;4987598;28;20023;-75
2022/11/08 04:41:09;;;;;;;0.73;0.73;;;;;;;11.59;100.00;99474.16;4986169;28;20082;-74
2022/11/08 04:43:35;;;;;;;0.40;0.40;;;;;;;11.59;100.00;99470.72;4987359;28;20026;-76
2022/11/08 04:46:05;;;;;;;0.30;0.30;;;;;;;11.63;100.00;99467.13;4987382;28;20058;-74
2022/11/08 04:48:31;;;;;;;0.30;0.30;;;;;;;11.60;100.00;99457.66;4987197;28;20018;-74
2022/11/08 04:51:04;;;;;;;13.13;5.60;;;;;;;11.69;100.00;99469.56;4987166;28;20108;-74
2022/11/08 04:53:30;;;;;;;3.83;2.17;;;;;;;11.68;100.00;99462.66;4987225;28;20057;-74
2022/11/08 04:56:06;;;;;;;0.75;0.75;;;;;;;11.64;100.00;99459.31;4986692;28;20081;-75
2022/11/08 04:58:37;;;;;;;0.30;0.30;;;;;;;11.67;100.00;99457.50;4987017;28;20035;-74
2022/11/08 05:01:04;;;;;;;0.40;0.40;;;;;;;11.64;100.00;99463.63;4987207;28;20089;-74
2022/11/08 05:03:30;;;;;;;0.40;0.40;;;;;;;11.60;100.00;99452.47;4985714;28;20113;-74
2022/11/08 05:06:00;;;;;;;0.57;0.57;;;;;;;11.60;100.00;99456.81;4986821;28;20054;-76
2022/11/08 05:08:25;;;;;;;0.55;0.55;;;;;;;11.65;100.00;99461.00;4986856;28;20077;-75
2022/11/08 05:10:50;;;;;;;0.30;0.30;;;;;;;11.67;100.00;99458.34;4986972;28;20066;-75
2022/11/08 05:13:16;;;;;;;0.40;0.40;;;;;;;11.74;100.00;99456.44;4987027;28;20018;-74
2022/11/08 05:15:41;;;;;;;0.50;0.50;;;;;;;11.74;100.00;99454.66;4986813;28;20022;-74
2022/11/08 05:18:06;;;;;;;0.40;0.40;;;;;;;11.73;100.00;99457.31;4986727;28;20098;-75
2022/11/08 05:23:25;;;;;;;0.50;0.50;;;;;;;11.75;100.00;99460.72;4986789;28;20034;-75
2022/11/08 05:25:52;;;;;;;2.50;2.40;;;;;;;11.71;100.00;99459.13;4986837;28;20483;-75
2022/11/08 05:28:17;;;;;;;0.40;0.40;;;;;;;11.69;100.00;99458.31;4986643;28;20031;-75
2022/11/08 05:30:43;;;;;;;0.40;0.40;;;;;;;11.73;100.00;99459.91;4986625;28;20033;-74
2022/11/08 05:33:08;;;;;;;0.40;0.40;;;;;;;11.66;100.00;99456.66;4986621;28;20019;-74
2022/11/08 05:35:34;;;;;;;0.40;0.40;;;;;;;11.69;100.00;99463.50;4986645;28;20467;-75
2022/11/08 05:37:59;;;;;;;0.40;0.40;;;;;;;11.71;100.00;99461.72;4986663;28;20030;-74
2022/11/08 05:40:25;;;;;;;1.15;1.15;;;;;;;11.70;100.00;99457.41;4986103;28;20053;-75
2022/11/08 05:42:53;;;;;;;0.40;0.40;;;;;;;11.75;100.00;99464.19;4986517;28;20031;-75
2022/11/08 05:45:19;;;;;;;1.95;1.40;;;;;;;11.77;100.00;99464.97;4986585;28;20027;-75
2022/11/08 05:47:45;;;;;;;0.40;0.40;;;;;;;11.76;100.00;99465.88;4986519;28;20050;-74
2022/11/08 05:50:12;;;;;;;0.30;0.30;;;;;;;11.78;100.00;99474.50;4986404;28;20027;-74
2022/11/08 05:52:37;;;;;;;0.30;0.30;;;;;;;11.78;100.00;99465.84;4986223;28;20038;-75
2022/11/08 05:55:02;;;;;;;0.40;0.40;;;;;;;11.80;100.00;99471.88;4986233;28;20026;-74
2022/11/08 05:57:28;;;;;;;0.40;0.40;;;;;;;11.76;100.00;99470.22;4986440;28;20059;-73
2022/11/08 05:59:53;;;;;;;0.38;0.38;;;;;;;11.72;100.00;99463.41;4986381;28;20027;-73
2022/11/08 06:02:18;;;;;;;0.40;0.40;;;;;;;11.71;100.00;99461.72;4986316;28;20023;-74
2022/11/08 06:04:44;;;;;;;0.32;0.32;;;;;;;11.70;100.00;99460.00;4986455;28;20463;-75
2022/11/08 06:07:09;;;;;;;0.40;0.40;;;;;;;11.68;100.00;99462.66;4987865;28;20054;-74
2022/11/08 06:09:34;;;;;;;0.40;0.40;;;;;;;11.64;100.00;99467.09;4990234;28;20031;-74
2022/11/08 06:12:00;;;;;;;0.40;0.40;;;;;;;11.62;100.00;99455.88;4989771;28;20038;-75
2022/11/08 06:14:25;;;;;;;0.40;0.40;;;;;;;11.63;100.00;99462.78;4990134;28;20027;-71
2022/11/08 06:16:50;;;;;;;0.40;0.40;;;;;;;11.62;100.00;99461.09;4990218;28;20032;-74
2022/11/08 06:19:16;;;;;;;0.40;0.40;;;;;;;11.65;100.00;99455.81;4990197;28;20019;-75
2022/11/08 06:21:41;;;;;;;0.30;0.30;;;;;;;11.63;100.00;99452.38;4989948;28;20050;-75
2022/11/08 06:24:07;;;;;;;0.40;0.40;;;;;;;11.61;100.00;99451.56;4972578;28;20031;-74
2022/11/08 06:26:32;;;;;;;0.40;0.40;;;;;;;11.55;100.00;99453.50;4990088;28;20034;-72
2022/11/08 06:28:57;;;;;;;2.10;1.15;;;;;;;11.61;100.00;99461.13;4989977;28;20033;-73
2022/11/08 06:31:23;;;;;;;1.27;1.08;;;;;;;11.66;100.00;99467.06;4989976;28;20086;-72
2022/11/08 06:33:49;;;;;;;0.40;0.40;;;;;;;11.61;100.00;99461.13;4989856;28;20431;-74
2022/11/08 06:36:14;;;;;;;0.40;0.40;;;;;;;11.61;100.00;99459.38;4989931;28;20083;-72
2022/11/08 06:38:40;;;;;;;0.40;0.40;;;;;;;11.60;100.00;99462.88;4989815;28;20023;-72
2022/11/08 06:41:05;;;;;;;0.45;0.45;;;;;;;11.67;100.00;99453.16;4989511;28;20040;-74
2022/11/08 06:43:30;;;;;;;1.48;1.48;;;;;;;11.64;100.00;99464.50;4989541;28;20038;-73
2022/11/08 06:46:01;;;;;;;0.40;0.40;;;;;;;11.69;100.00;99458.31;4989313;28;20022;-72
2022/11/08 06:48:26;;;;;;;0.40;0.40;;;;;;;11.71;100.00;99459.97;4988795;28;20034;-74
2022/11/08 06:50:51;;;;;;;0.50;0.50;;;;;;;11.70;100.00;99462.59;4989514;28;20398;-75
2022/11/08 06:53:17;;;;;;;0.40;0.40;;;;;;;11.71;100.00;99459.13;4989457;28;20115;-74
2022/11/08 06:55:42;;;;;;;0.68;0.68;;;;;;;11.70;100.00;99460.00;4989314;28;20111;-74
2022/11/08 06:58:09;;;;;;;0.50;0.50;;;;;;;11.72;100.00;99455.63;4989400;28;20050;-74
2022/11/08 07:00:35;;;;;;;0.40;0.40;;;;;;;11.71;100.00;99459.13;4989416;28;20033;-74
2022/11/08 07:03:02;;;;;;;0.40;0.40;;;;;;;11.70;100.00;99447.00;4988046;28;20054;-73
2022/11/08 07:05:29;;;;;;;0.40;0.40;;;;;;;11.72;100.00;99459.09;4989509;28;20046;-72
2022/11/08 07:07:56;;;;;;;0.40;0.40;;;;;;;11.73;100.00;99462.50;4989283;28;20026;-71
2022/11/08 07:10:24;;;;;;;0.40;0.40;;;;;;;11.75;100.00;99464.19;4989360;28;20078;-72
2022/11/08 07:12:58;;;;;;;0.50;0.50;;;;;;;11.73;100.00;99462.50;4989069;28;20031;-72
2022/11/08 07:15:23;;;;;;;0.38;0.38;;;;;;;11.76;100.00;99467.63;4989233;28;20057;-71
2022/11/08 07:17:48;;;;;;;0.65;0.65;;;;;;;11.75;100.00;99465.94;4989123;28;20019;-72
2022/11/08 07:20:14;;;;;;;0.50;0.50;;;;;;;11.77;100.00;99461.56;4988952;28;20118;-72
2022/11/08 07:22:39;;;;;;;0.30;0.30;;;;;;;11.60;100.00;99431.66;4988833;28;20090;-71
2022/11/08 07:25:05;;;;;;;0.52;0.52;;;;;;;11.78;100.00;99469.31;4989184;28;20050;-73
2022/11/08 07:27:30;;;;;;;0.40;0.40;;;;;;;11.82;100.00;99464.03;4989019;28;20030;-72
2022/11/08 07:29:56;;;;;;;22.13;1.75;;;;;;;11.83;100.00;99463.09;4988831;28;20030;-72
2022/11/08 07:32:21;;;;;;;0.43;0.43;;;;;;;11.83;100.00;99455.31;4988882;28;20161;-74
2022/11/08 07:34:47;;;;;;;0.50;0.50;;;;;;;11.84;100.00;99473.47;4988751;28;20475;-73
2022/11/08 07:37:12;;;;;;;0.40;0.40;;;;;;;11.84;100.00;99465.66;4988915;28;20099;-72
2022/11/08 07:39:37;;;;;;;0.55;0.55;;;;;;;11.85;100.00;99467.34;4988775;28;20022;-72
2022/11/08 07:42:03;;;;;;;0.40;0.40;;;;;;;11.83;100.00;99461.38;4988598;28;20094;-74
2022/11/08 07:44:28;;;;;;;0.40;0.40;;;;;;;11.79;100.00;99467.53;4988540;28;20018;-73
2022/11/08 07:46:54;;;;;;;0.38;0.38;;;;;;;11.80;100.00;99460.59;4971134;28;20030;-73
2022/11/08 07:49:19;;;;;;;0.40;0.40;;;;;;;11.80;100.00;99458.88;4988628;28;20029;-72
2022/11/08 07:51:45;;;;;;;0.40;0.40;;;;;;;11.81;100.00;99459.69;4988623;28;20022;-73
2022/11/08 07:54:10;;;;;;;0.43;0.43;;;;;;;11.83;100.00;99457.91;4988456;28;20019;-74
2022/11/08 07:56:35;;;;;;;0.40;0.40;;;;;;;11.86;100.00;99460.41;4988360;28;20054;-74
2022/11/08 07:59:01;;;;;;;0.40;0.40;;;;;;;11.89;100.00;99458.59;4988557;28;20046;-74
2022/11/08 08:01:26;;;;;;;0.40;0.40;;;;;;;11.92;100.00;99462.00;4988408;28;20483;-75
2022/11/08 08:03:51;;;;;;;0.40;0.40;;;;;;;11.89;100.00;99458.59;4988470;28;20054;-75
2022/11/08 08:06:17;;;;;;;0.40;0.40;;;;;;;11.87;100.00;99452.56;4988289;28;20023;-76
2022/11/08 08:08:42;;;;;;;0.40;0.40;;;;;;;11.92;100.00;99464.59;4988139;28;20121;-75
2022/11/08 08:11:08;;;;;;;0.45;0.45;;;;;;;11.89;100.00;99457.72;4988245;28;20051;-75
2022/11/08 08:13:34;;;;;;;3.05;2.75;;;;;;;11.84;100.00;99463.06;4988274;28;20121;-75
2022/11/08 08:16:00;;;;;;;0.40;0.40;;;;;;;11.85;100.00;99445.72;4988320;28;20026;-74
2022/11/08 08:18:26;;;;;;;1.20;1.20;;;;;;;11.84;100.00;99454.41;4988084;28;20086;-74
2022/11/08 08:20:51;;;;;;;0.40;0.40;;;;;;;11.82;100.00;99456.22;4987855;28;20050;-73
2022/11/08 08:23:17;;;;;;;0.40;0.40;;;;;;;11.77;100.00;99453.75;4988015;28;20057;-71
2022/11/08 08:25:42;;;;;;;0.45;0.45;;;;;;;11.74;100.00;99456.44;4988041;28;20042;-73
2022/11/08 08:28:08;;;;;;;0.40;0.40;;;;;;;11.72;100.00;99461.69;4987860;28;20030;-71
2022/11/08 08:30:34;;;;;;;0.40;0.40;;;;;;;11.69;100.00;99455.72;4987112;28;20033;-72
2022/11/08 08:33:10;;;;;;;0.40;0.40;;;;;;;11.67;100.00;99458.34;4987966;28;20031;-71
2022/11/08 08:35:36;;;;;;;0.40;0.40;;;;;;;11.67;100.00;99452.28;4987831;28;20027;-71
2022/11/08 08:38:03;;;;;;;0.40;0.40;;;;;;;11.67;100.00;99460.97;4970097;28;20023;-73
2022/11/08 08:40:29;;;;;;;0.30;0.30;;;;;;;11.57;100.00;99446.50;4987667;28;20022;-71
2022/11/08 08:42:57;;;;;;;0.40;0.40;;;;;;;11.59;100.00;99461.16;4987441;28;20057;-70
2022/11/08 08:45:23;;;;;;;0.40;0.40;;;;;;;11.58;100.00;99456.84;4987506;28;20051;-73
2022/11/08 08:47:53;;;;;;;0.40;0.40;;;;;;;11.57;100.00;99452.56;4987628;28;20085;-73
2022/11/08 08:50:18;;;;;;;0.40;0.40;;;;;;;11.56;100.00;99452.59;4987343;28;20078;-73
2022/11/08 08:52:44;;;;;;;0.40;0.40;;;;;;;11.56;100.00;99448.25;4987092;28;20049;-71
2022/11/08 08:55:09;;;;;;;0.30;0.30;;;;;;;11.56;100.00;99448.25;4987397;28;20023;-73
2022/11/08 08:57:34;;;;;;;0.38;0.38;;;;;;;11.46;100.00;99458.06;4987380;28;20045;-72
2022/11/08 08:59:59;;;;;;;0.40;0.40;;;;;;;11.59;100.00;99442.13;4987295;28;20043;-71
2022/11/08 09:02:25;;;;;;;0.40;0.40;;;;;;;11.32;100.00;99432.44;4987159;28;20541;-71
2022/11/08 09:04:50;;;;;;;0.40;0.40;;;;;;;11.43;100.00;99457.28;4987188;28;20081;-72
2022/11/08 09:07:15;;;;;;;0.40;0.40;;;;;;;11.43;100.00;99454.69;4987190;28;20042;-73
2022/11/08 09:09:41;;;;;;;0.40;0.40;;;;;;;11.43;100.00;99452.94;4986932;28;20027;-71
2022/11/08 09:12:06;;;;;;;0.40;0.40;;;;;;;11.42;100.00;99452.97;4986976;28;20041;-72
2022/11/08 09:14:31;;;;;;;0.40;0.40;;;;;;;11.48;100.00;99465.81;4986991;28;20027;-70
2022/11/08 09:16:57;;;;;;;1.58;1.50;;;;;;;11.48;100.00;99463.22;4987102;28;20030;-71
2022/11/08 09:19:22;;;;;;;0.40;0.40;;;;;;;11.51;100.00;99455.31;4986824;28;20470;-70
2022/11/08 09:21:48;;;;;;;1.42;1.35;;;;;;;11.56;100.00;99452.59;4986448;28;20422;-70
2022/11/08 09:24:13;;;;;;;0.35;0.35;;;;;;;11.61;100.00;99446.38;4986633;28;20034;-71
2022/11/08 09:26:38;;;;;;;0.40;0.40;;;;;;;11.64;100.00;99461.91;4986869;28;20027;-71
2022/11/08 09:29:03;;;;;;;0.40;0.40;;;;;;;11.68;100.00;99464.41;4986697;28;20023;-71
2022/11/08 09:31:29;;;;;;;0.40;0.40;;;;;;;11.68;100.00;99464.41;4986620;28;20074;-70
2022/11/08 09:33:54;;;;;;;0.50;0.50;;;;;;;11.74;100.00;99464.25;4986612;28;20023;-71
2022/11/08 09:36:19;;;;;;;0.30;0.30;;;;;;;11.74;100.00;99462.47;4969337;28;20023;-71
2022/11/08 09:38:45;;;;;;;0.45;0.45;;;;;;;11.77;100.00;99470.19;4969366;28;20068;-72
2022/11/08 09:41:49;;;;;;;0.45;0.45;;;;;;;11.84;100.00;99475.22;4986505;28;20101;-71
2022/11/08 09:44:53;;;;;;;0.40;0.40;;;;;;;11.84;100.00;99473.47;4983531;28;20066;-72
2022/11/08 09:47:23;;;;;;;0.60;0.60;;;;;;;11.79;100.00;99470.13;4986649;28;20045;-72
2022/11/08 09:50:13;;;;;;;0.40;0.40;;;;;;;11.82;100.00;99477.84;4986651;28;20030;-73
2022/11/08 09:52:42;;;;;;;0.60;0.60;;;;;;;11.82;100.00;99469.22;4986344;28;20031;-71
2022/11/08 09:55:24;;;;;;;0.40;0.40;;;;;;;11.86;100.00;99476.88;4986629;28;20055;-74
2022/11/08 09:58:12;;;;;;;1.15;1.15;;;;;;;11.88;100.00;99472.50;4985288;28;20029;-74
2022/11/08 10:00:39;;;;;;;0.40;0.40;;;;;;;11.89;100.00;99476.78;4977218;28;20042;-73
2022/11/08 10:03:04;;;;;;;0.40;0.40;;;;;;;11.90;100.00;99475.88;4986370;28;20027;-73
2022/11/08 10:05:39;;;;;;;0.40;0.40;;;;;;;11.97;100.00;99480.91;4969362;28;20042;-75
2022/11/08 10:08:27;;;;;;;0.50;0.50;;;;;;;11.97;100.00;99480.91;4986463;28;20023;-76
2022/11/08 10:11:08;;;;;;;0.75;0.75;;;;;;;11.97;100.00;99481.78;4986560;28;20537;-75
2022/11/08 10:13:39;;;;;;;0.40;0.40;;;;;;;12.00;100.00;99488.63;4986406;28;20039;-74
2022/11/08 10:16:26;;;;;;;19.15;6.30;;;;;;;12.02;100.00;99481.63;4986590;28;20019;-74
2022/11/08 10:19:06;;;;;;;0.40;0.40;;;;;;;12.02;100.00;99484.25;4986432;28;20046;-76
2022/11/08 10:21:50;;;;;;;0.55;0.55;;;;;;;12.00;100.00;99488.63;4986321;28;20102;-75
2022/11/08 10:24:30;;;;;;;0.50;0.50;;;;;;;11.97;100.00;99481.78;4986417;28;20053;-74
2022/11/08 10:26:57;;;;;;;0.60;0.60;;;;;;;11.98;100.00;99485.22;4986378;28;20149;-73
2022/11/08 10:29:30;;;;;;;0.40;0.40;;;;;;;11.96;100.00;99490.47;4986363;28;20027;-73
2022/11/08 10:32:02;;;;;;;0.40;0.40;;;;;;;12.00;100.00;99480.81;4986273;28;20035;-71
2022/11/08 10:34:40;;;;;;;0.40;0.40;;;;;;;12.06;100.00;99480.63;4986301;28;20022;-72
2022/11/08 10:37:10;;;;;;;1.80;1.70;;;;;;;12.06;100.00;99474.59;4986047;28;20231;-72
2022/11/08 10:39:50;;;;;;;2.15;2.05;;;;;;;12.08;100.00;99472.81;4986061;28;20031;-71
2022/11/08 10:42:45;;;;;;;0.40;0.40;;;;;;;12.12;100.00;99471.84;4986227;28;20018;-70
2022/11/08 10:45:11;;;;;;;8.27;3.65;;;;;;;12.16;100.00;99467.41;4986095;28;20439;-70
2022/11/08 10:47:38;;;;;;;0.40;0.40;;;;;;;12.11;100.00;99468.38;4985881;28;20109;-71
2022/11/08 10:50:16;;;;;;;0.82;0.82;;;;;;;12.17;100.00;99471.72;4986143;28;20062;-71
2022/11/08 10:52:55;;;;;;;0.50;0.50;;;;;;;12.16;100.00;99468.25;4986394;28;20030;-69
2022/11/08 10:55:37;;;;;;;0.40;0.40;;;;;;;12.18;100.00;99461.25;4989760;28;20023;-71
2022/11/08 10:58:03;;;;;;;0.35;0.35;;;;;;;12.19;100.00;99455.13;4989628;28;20031;-71
2022/11/08 11:00:32;;;;;;;0.40;0.40;;;;;;;12.21;100.00;99457.69;4971945;28;20034;-72
2022/11/08 11:03:09;;;;;;;0.40;0.40;;;;;;;12.25;100.00;99460.16;4989279;28;20022;-71
2022/11/08 11:05:59;;;;;;;1.63;1.52;;;;;;;12.24;100.00;99450.66;4989334;28;20034;-70
2022/11/08 11:08:25;;;;;;;0.98;0.98;;;;;;;12.25;100.00;99464.53;4989172;28;20030;-70
2022/11/08 11:10:50;;;;;;;0.40;0.40;;;;;;;12.23;100.00;99461.09;4989286;28;20029;-71
2022/11/08 11:13:28;;;;;;;0.38;0.38;;;;;;;12.21;100.00;99463.75;4989104;28;20127;-71
2022/11/08 11:15:56;;;;;;;0.65;0.65;;;;;;;12.21;100.00;99461.16;4989313;28;20042;-72
2022/11/08 11:18:31;;;;;;;1.17;1.17;;;;;;;12.20;100.00;99461.22;4989257;28;20034;-71
2022/11/08 11:21:10;;;;;;;0.40;0.40;;;;;;;12.21;100.00;99462.91;4988727;28;20170;-71
2022/11/08 11:24:05;;;;;;;0.40;0.40;;;;;;;12.16;100.00;99463.03;4988871;28;20051;-72
2022/11/08 11:26:33;;;;;;;2.00;1.90;;;;;;;12.14;100.00;99463.09;4988972;28;20101;-72
2022/11/08 11:29:01;;;;;;;0.60;0.60;;;;;;;12.17;100.00;99454.34;4987348;28;20477;-71
2022/11/08 11:31:27;;;;;;;0.88;0.85;;;;;;;12.18;100.00;99458.66;4988808;28;20031;-71
2022/11/08 11:33:52;;;;;;;0.40;0.40;;;;;;;12.20;100.00;99448.19;4988671;28;20150;-72
2022/11/08 11:36:23;;;;;;;1.40;1.30;;;;;;;12.21;100.00;99450.75;4987172;28;20035;-73
2022/11/08 11:38:59;;;;;;;0.57;0.57;;;;;;;12.17;100.00;99443.94;4971260;28;20115;-74
2022/11/08 11:41:36;;;;;;;0.40;0.40;;;;;;;12.19;100.00;99457.75;4988648;28;20034;-73
2022/11/08 11:44:17;;;;;;;0.40;0.40;;;;;;;12.21;100.00;99449.88;4988673;28;20026;-72
2022/11/08 11:46:58;;;;;;;0.40;0.40;;;;;;;12.24;100.00;99457.59;4988677;28;20077;-71
2022/11/08 11:49:24;;;;;;;0.40;0.40;;;;;;;12.28;100.00;99451.41;4988498;28;20402;-71